Airfield :
LOGIN :

Register | Disclaimer

   EN    FR    IT 

 










Legend :    VFR   Marginal VFR   IFR   Intensive IFR   Very Intensive IFR
Visi :
Ceiling :
>= 8 km
>= 3000ft
5 to 8 km
1000 to 3000 ft
1500m to 5 km
500 to 1000 ft
800 to 1500m
200 to 500 ft
< 800m
< 200 ft
Symbols :   Thunderstorms  Fog  Heavy snow  Heavy precipitations  Wind > 20 kt
SIGMETs :     Misc.  Thunderstorms  Icing  Turbulence  Mountain Waves  Volcanic Ashes






- Airport Elevation : -15 ft
- IATA code : RTM


EHRD - Rotterdam Zestienhoven

CURRENT METAR :
  • 031955Z AUTO 27004KT 9999 NCD 16/12 Q1019 NOSIG

EXPIRED METARs :
  • 031925Z AUTO 27004KT 240V300 9999 NCD 17/12 Q1019 NOSIG
  • 031855Z AUTO 26007KT 230V290 9999 FEW026 18/12 Q1019 NOSIG
  • 031825Z AUTO 28007KT 240V320 9999 NCD 18/12 Q1019 NOSIG
  • 030525Z AUTO 24005KT 210V270 9999 NSC 16/14 Q1017 NOSIG
  • 031755Z AUTO 27006KT 230V310 9999 BKN026 BKN031 BKN036 18/12 Q1019 NOSIG
  • 031725Z AUTO 28008KT 240V330 9999 SCT028 SCT031 19/12 Q1019 NOSIG

TAF TAF EHRD
Valid from the 03 at 18:00 until the 05 at 00:00 UTC


031706Z 0318/0424 27010KT 9999 SCT025
BECMG 0318/0321 22005KT
BECMG 0408/0411 27013KT
BECMG 0417/0420 31007KT
BECMG 0420/0423 VRB02KT



MET'MAP, your aeronautical weather chart ! - Copyright ORBIFLY December 2007 - Disclaimer

ORBIFLY MET'MAP TEAM :

Programming & Development : Alexandra Zaïnal
Original concept : Baudouin d'Aumeries
Technical & hardware support : Manuel Goepfert
Assistance : Marc-Olivier Méhu




SOURCES & CREDITS :

   NOAA